Terminal Aerodrome Forecast
Issued by NWS

Current Version | Previous Version | Graphics & Text | Print | Product List | Glossary On
Versions: 1 2 3 4 5 6 7 8 9 10 11 12
031
FTUS41 KPBZ 181137
TAFHLG
TAF
KHLG 181137Z 1812/1912 22006KT P6SM SKC
     FM181400 22013G22KT P6SM SKC
     FM190000 23010KT P6SM SKC=

USA.gov is the U.S. government's official web portal to all federal, state and local government web resources and services.